Brownsville South Padre Island International Airport Brownsville US
ICAO: KBRO
IATA: BRO
Category: Medium
Scheduled Services: Yes

Elevation: 22 ft
TransAlt. 18000 ft.

Airport Communications:
VALLEY APP/DEP:119.5
ATIS:128.55
CTAF:118.9
GND:121.9
SAN ANGELO RDO:122.3
TWR:118.9
UNICOM:122.95

KBRO Zoom In..

Runways:

(A) RW 13L length 3000 ft width 75 ft
---- / hdg 128

(B) RW 13R length 7399 ft width 150 ft
ILS 110.30 / hdg 128

(C) RW 17 length 6000 ft width 150 ft
---- / hdg 175

(D) RW 31L length 7399 ft width 150 ft
---- / hdg 308

(E) RW 31R length 3000 ft width 75 ft
---- / hdg 308

(F) RW 35 length 6000 ft width 150 ft
---- / hdg 355

Location; KBRO
Day. 21 / Time. 23.53 Zulu
* Altimeter: 29.85
* Temperature: 23° c. 73.4°f.
* Wind from: 160° Speed 14 kn.
Dewpoint: 19° c.
Visibility: 10 Statute Miles.
Clouds: Clear (automated report).

KBRO 212353Z 16014KT 10SM CLR 23/19 A2985 RMK AO2 PK WND 16029/2256 SLP108 T02280194 10261 20228 53003


Wind From 160°
Speed 14 kn.

jpsM music video
CHECK IT OUT

jpsM - It Moves..

 
jpsmedia.com for Web Design  worldairports.se 2018   terms of use